Time;durP1;ratioP1;P1;durP2;ratioP2;P2;SDS_P1;SDS_P2;PMS_P1;PMS_P2;Temp;Humidity;BMP_temperature;BMP_pressure;BME280_temperature;BME280_humidity;BME280_pressure;Samples;Min_cycle;Max_cycle;Signal;HPM_P1;HPM_P2
2021/10/12 00:00:56;;;;;;;50.95;32.90;;;;;;;7.74;77.46;96673.27;1789575;77;21102;-82
2021/10/12 00:03:21;;;;;;;43.92;28.50;;;;;;;7.73;77.60;96671.17;1790994;79;21090;-82
2021/10/12 00:05:47;;;;;;;46.02;30.70;;;;;;;7.71;77.67;96674.41;1771469;79;21125;-82
2021/10/12 00:08:13;;;;;;;43.38;29.77;;;;;;;7.69;77.81;96676.34;1770498;79;21109;-82
2021/10/12 00:10:38;;;;;;;39.03;27.05;;;;;;;7.71;78.09;96671.81;1808111;77;21034;-82
2021/10/12 00:13:04;;;;;;;39.00;26.85;;;;;;;7.69;77.95;96673.75;1790790;79;21098;-82
2021/10/12 00:15:30;;;;;;;48.68;29.20;;;;;;;7.70;78.01;96671.49;1816272;76;21387;-83
2021/10/12 00:17:56;;;;;;;36.77;24.77;;;;;;;7.71;78.18;96660.66;1805652;78;21050;-82
2021/10/12 00:20:21;;;;;;;37.28;26.68;;;;;;;7.71;78.27;96663.25;1778144;78;21020;-82
2021/10/12 00:22:47;;;;;;;43.20;28.45;;;;;;;7.69;78.31;96664.70;1804262;79;21008;-82
2021/10/12 00:25:13;;;;;;;46.40;31.73;;;;;;;7.72;78.48;96663.09;1773234;79;21466;-82
2021/10/12 00:27:38;;;;;;;54.08;33.48;;;;;;;7.71;78.59;96659.38;1783053;79;21012;-82
2021/10/12 00:30:05;;;;;;;35.90;23.85;;;;;;;7.69;78.57;96660.02;1781240;80;21072;-82
2021/10/12 00:32:32;;;;;;;38.10;25.35;;;;;;;7.69;79.25;96660.02;1782759;79;21067;-82
2021/10/12 00:35:00;;;;;;;44.27;28.32;;;;;;;7.67;78.86;96661.95;1802361;77;21506;-82
2021/10/12 00:37:25;;;;;;;43.55;27.55;;;;;;;7.65;79.04;96665.18;1783721;79;22227;-82
2021/10/12 00:39:51;;;;;;;46.83;28.80;;;;;;;7.64;79.23;96666.11;1782636;79;21004;-82
2021/10/12 00:42:17;;;;;;;37.73;26.40;;;;;;;7.60;80.44;96664.81;1789510;77;21043;-82
2021/10/12 00:44:45;;;;;;;42.23;28.23;;;;;;;7.56;79.85;96669.50;1806760;77;21024;-82
2021/10/12 00:47:10;;;;;;;36.03;25.43;;;;;;;7.56;80.31;96666.10;1794385;79;21127;-83
2021/10/12 00:49:36;;;;;;;37.70;25.77;;;;;;;7.53;80.36;96677.57;1791957;79;21084;-82
2021/10/12 00:52:03;;;;;;;40.30;26.07;;;;;;;7.57;80.84;96674.19;1798890;79;21127;-82
2021/10/12 00:54:28;;;;;;;37.95;27.07;;;;;;;7.56;80.70;96668.69;1787811;78;21048;-82
2021/10/12 00:56:54;;;;;;;39.55;25.70;;;;;;;7.56;80.81;96664.33;1782743;79;20996;-82
2021/10/12 00:59:20;;;;;;;36.68;24.82;;;;;;;7.58;81.10;96656.41;1782537;79;21047;-82
2021/10/12 01:01:46;;;;;;;37.35;24.47;;;;;;;7.57;81.04;96656.89;1782486;79;22112;-82
2021/10/12 01:04:11;;;;;;;35.90;25.10;;;;;;;7.57;81.08;96654.30;1782380;80;21103;-82
2021/10/12 01:06:37;;;;;;;56.40;33.05;;;;;;;7.61;81.19;96656.90;1779213;79;21044;-82
2021/10/12 01:09:03;;;;;;;46.65;30.40;;;;;;;7.64;81.14;96655.28;1782450;79;21489;-82
2021/10/12 01:11:29;;;;;;;49.83;31.37;;;;;;;7.67;81.37;96654.19;1782501;80;21028;-82
2021/10/12 01:13:54;;;;;;;44.20;28.60;;;;;;;7.70;81.30;96656.45;1782591;79;21067;-82
2021/10/12 01:16:20;;;;;;;41.92;27.17;;;;;;;7.68;81.22;96646.75;1782448;79;21454;-82
2021/10/12 01:21:16;;;;;;;37.03;25.32;;;;;;;7.71;81.54;96638.67;1795075;78;21063;-82
2021/10/12 01:23:42;;;;;;;60.15;37.55;;;;;;;7.77;81.39;96635.45;1777303;79;21442;-82
2021/10/12 01:26:07;;;;;;;55.20;33.05;;;;;;;7.83;81.45;96633.55;1820154;77;21065;-82
2021/10/12 01:28:33;;;;;;;67.30;35.15;;;;;;;7.81;81.26;96627.23;1845184;77;21397;-82
2021/10/12 01:30:59;;;;;;;45.80;27.80;;;;;;;7.80;81.37;96627.37;1833603;77;21026;-82
2021/10/12 01:33:25;;;;;;;49.73;31.00;;;;;;;7.79;81.46;96623.97;1848162;77;21108;-82
2021/10/12 01:35:52;;;;;;;44.50;31.02;;;;;;;7.77;81.42;96629.79;1840092;77;21099;-82
2021/10/12 01:38:18;;;;;;;46.65;34.43;;;;;;;7.82;81.43;96628.05;1841120;77;21030;-82
2021/10/12 01:40:43;;;;;;;42.55;31.42;;;;;;;7.83;81.64;96624.00;1813079;77;21472;-82
2021/10/12 01:43:09;;;;;;;41.30;29.67;;;;;;;7.87;81.70;96621.91;1841156;77;20996;-82
2021/10/12 01:45:37;;;;;;;34.78;25.92;;;;;;;7.87;81.70;96619.31;1840544;77;21082;-82
2021/10/12 01:48:04;;;;;;;33.78;25.45;;;;;;;7.84;81.60;96609.30;1830135;76;21058;-82
2021/10/12 01:50:30;;;;;;;32.35;22.55;;;;;;;7.83;81.65;96618.02;1796067;79;21067;-82
2021/10/12 01:52:56;;;;;;;30.08;21.50;;;;;;;7.82;81.58;96612.04;1769338;80;21055;-82
2021/10/12 01:55:23;;;;;;;28.87;19.92;;;;;;;7.86;81.54;96607.84;1779318;77;21552;-82
2021/10/12 01:57:49;;;;;;;28.95;21.27;;;;;;;7.86;81.41;96606.06;1796467;78;21115;-82
2021/10/12 02:00:15;;;;;;;34.53;21.68;;;;;;;7.89;81.56;96605.73;1765101;79;21021;-82
2021/10/12 02:02:43;;;;;;;36.30;22.55;;;;;;;7.86;81.49;96603.95;1796001;79;21060;-83
2021/10/12 02:05:08;;;;;;;34.18;24.60;;;;;;;7.80;81.60;96602.31;1794399;77;21163;-82
2021/10/12 02:07:34;;;;;;;30.65;21.23;;;;;;;7.81;81.69;96595.39;1831292;76;21038;-82
2021/10/12 02:10:00;;;;;;;32.65;23.05;;;;;;;7.78;81.39;96601.66;1795496;76;21062;-82
2021/10/12 02:12:26;;;;;;;43.87;28.12;;;;;;;7.77;81.44;96592.77;1769832;78;21108;-82
2021/10/12 02:14:51;;;;;;;40.63;27.62;;;;;;;7.77;81.53;96591.48;1812116;77;21050;-82
2021/10/12 02:17:17;;;;;;;36.90;25.23;;;;;;;7.74;81.56;96587.44;1804989;77;21097;-83
2021/10/12 02:19:43;;;;;;;40.38;27.77;;;;;;;7.77;81.75;96587.59;1821368;77;21012;-82
2021/10/12 02:22:08;;;;;;;35.52;24.50;;;;;;;7.72;81.70;96591.15;1808813;78;21556;-82
2021/10/12 02:24:34;;;;;;;28.80;21.33;;;;;;;7.72;81.84;96579.52;1810120;77;21122;-82
2021/10/12 02:27:00;;;;;;;30.15;22.50;;;;;;;7.74;81.93;96579.67;1773764;79;21134;-82
2021/10/12 02:29:27;;;;;;;28.45;21.35;;;;;;;7.74;81.78;96577.09;1773178;78;21406;-82
2021/10/12 02:31:53;;;;;;;30.25;22.50;;;;;;;7.72;81.83;96579.52;1779884;77;21034;-82
2021/10/12 02:34:19;;;;;;;31.70;23.12;;;;;;;7.67;81.74;96575.31;1814145;77;21455;-82
2021/10/12 02:36:44;;;;;;;29.77;22.42;;;;;;;7.63;81.79;96574.80;1804954;77;21442;-82
2021/10/12 02:39:10;;;;;;;32.95;23.95;;;;;;;7.60;82.04;96573.02;1815360;77;21097;-82
2021/10/12 02:41:36;;;;;;;32.88;24.20;;;;;;;7.53;82.04;96566.38;1809325;77;21560;-82
2021/10/12 02:44:02;;;;;;;33.13;24.02;;;;;;;7.59;82.13;96567.03;1822524;77;21075;-82
2021/10/12 02:46:27;;;;;;;30.50;23.98;;;;;;;7.61;82.20;96566.39;1821588;77;21522;-82
2021/10/12 02:48:53;;;;;;;31.30;22.55;;;;;;;7.68;82.20;96566.09;1847053;77;21575;-82
2021/10/12 02:51:21;;;;;;;31.10;22.62;;;;;;;7.67;82.15;96563.19;1818898;76;21116;-82
2021/10/12 02:53:46;;;;;;;32.00;22.25;;;;;;;7.66;82.34;96568.03;1826687;76;21114;-82
2021/10/12 02:56:12;;;;;;;33.08;23.80;;;;;;;7.68;82.43;96564.80;1835799;76;21114;-82
2021/10/12 02:58:38;;;;;;;33.38;20.82;;;;;;;7.68;82.35;96569.98;1809977;77;21226;-82
2021/10/12 03:01:04;;;;;;;26.65;20.35;;;;;;;7.70;82.37;96577.57;1789133;77;21589;-82
2021/10/12 03:03:30;;;;;;;30.37;21.07;;;;;;;7.70;82.32;96574.50;1820757;76;21051;-82
2021/10/12 03:05:55;;;;;;;27.35;20.55;;;;;;;7.72;82.16;96579.52;1839063;75;21113;-82
2021/10/12 03:08:21;;;;;;;29.02;21.48;;;;;;;7.74;82.29;96579.67;1787908;77;21019;-82
2021/10/12 03:10:47;;;;;;;29.55;21.50;;;;;;;7.72;82.12;96576.44;1807974;77;21066;-82
2021/10/12 03:13:13;;;;;;;31.70;21.87;;;;;;;7.71;82.12;96575.31;1815873;77;21501;-83
2021/10/12 03:15:38;;;;;;;30.40;22.67;;;;;;;7.71;82.08;96569.66;1825918;76;20986;-82
2021/10/12 03:18:04;;;;;;;29.52;21.35;;;;;;;7.74;82.00;96570.63;1822646;76;21121;-82
2021/10/12 03:20:30;;;;;;;28.17;20.77;;;;;;;7.77;82.06;96565.61;1836895;76;21055;-82
2021/10/12 03:22:56;;;;;;;31.80;21.33;;;;;;;7.79;82.05;96570.94;1839475;76;21106;-82
2021/10/12 03:25:22;;;;;;;28.30;21.52;;;;;;;7.82;82.22;96565.48;1826642;75;21102;-82
2021/10/12 03:27:47;;;;;;;29.80;21.15;;;;;;;7.77;82.20;96561.24;1822751;76;21484;-82
2021/10/12 03:30:13;;;;;;;30.77;21.90;;;;;;;7.76;82.31;96559.62;1820172;77;21124;-82
2021/10/12 03:32:39;;;;;;;28.32;18.80;;;;;;;7.77;82.23;96553.48;1851441;76;21018;-82
2021/10/12 03:35:05;;;;;;;29.72;20.08;;;;;;;7.80;82.16;96558.81;1829773;77;21565;-83
2021/10/12 03:37:33;;;;;;;27.25;19.35;;;;;;;7.81;82.24;96551.41;1793533;77;21032;-83
2021/10/12 03:39:59;;;;;;;27.98;20.30;;;;;;;7.80;82.11;96554.45;1784641;78;21146;-82
2021/10/12 03:42:25;;;;;;;28.40;20.80;;;;;;;7.76;82.19;96546.69;1812155;76;21024;-82
2021/10/12 03:44:50;;;;;;;28.17;19.48;;;;;;;7.71;82.32;96545.08;1793560;77;21124;-82
2021/10/12 03:47:17;;;;;;;30.82;20.50;;;;;;;7.68;82.19;96544.11;1810346;77;21057;-83
2021/10/12 03:49:42;;;;;;;27.73;19.30;;;;;;;7.70;82.21;96538.78;1809222;77;21558;-83
2021/10/12 03:52:09;;;;;;;25.05;17.30;;;;;;;7.72;82.29;96541.52;1793419;77;21115;-82
2021/10/12 03:54:34;;;;;;;26.77;17.77;;;;;;;7.74;82.32;96534.89;1794067;77;21134;-82
2021/10/12 03:57:00;;;;;;;27.00;19.82;;;;;;;7.78;82.38;96538.77;1831668;76;21094;-82
2021/10/12 03:59:26;;;;;;;27.45;18.82;;;;;;;7.79;82.35;96537.31;1792428;78;21532;-82
2021/10/12 04:01:52;;;;;;;25.75;18.00;;;;;;;7.75;82.41;96536.02;1785517;79;21078;-82
2021/10/12 04:04:18;;;;;;;30.55;20.05;;;;;;;7.70;82.21;96523.26;1788287;77;21504;-82
2021/10/12 04:06:44;;;;;;;25.85;17.57;;;;;;;7.70;82.36;96522.77;1796700;79;22060;-82
2021/10/12 04:09:10;;;;;;;24.15;17.20;;;;;;;7.73;82.34;96524.22;1804793;78;21019;-82
2021/10/12 04:11:36;;;;;;;22.67;16.52;;;;;;;7.77;82.47;96513.39;1832896;77;21097;-82
2021/10/12 04:14:02;;;;;;;23.57;16.85;;;;;;;7.81;82.33;96519.08;1840066;77;21501;-83
2021/10/12 04:16:27;;;;;;;26.23;17.55;;;;;;;7.82;82.50;96515.03;1801201;78;21111;-82
2021/10/12 04:18:53;;;;;;;19.12;15.00;;;;;;;7.81;82.56;96509.53;1819456;77;21185;-82
2021/10/12 04:21:20;;;;;;;22.07;15.05;;;;;;;7.86;82.61;96512.12;1820762;77;21432;-82
2021/10/12 04:23:46;;;;;;;22.40;15.43;;;;;;;7.83;82.38;96507.59;1829743;77;21049;-82
2021/10/12 04:26:14;;;;;;;21.80;14.85;;;;;;;7.81;82.22;96502.27;1816919;77;21532;-82
2021/10/12 04:28:41;;;;;;;20.02;15.75;;;;;;;7.84;82.21;96504.52;1811831;78;21039;-82
2021/10/12 04:31:07;;;;;;;19.32;13.90;;;;;;;7.86;82.31;96497.41;1809817;77;21125;-82
2021/10/12 04:33:34;;;;;;;22.73;15.28;;;;;;;7.84;82.15;96490.29;1813848;77;21371;-82
2021/10/12 04:36:00;;;;;;;19.65;14.80;;;;;;;7.78;82.01;96483.97;1836857;76;21151;-82
2021/10/12 04:38:25;;;;;;;17.23;13.38;;;;;;;7.72;81.95;96479.94;1817752;77;21122;-82
2021/10/12 04:40:51;;;;;;;21.97;15.10;;;;;;;7.70;81.76;96474.12;1853994;76;21089;-82
2021/10/12 04:43:17;;;;;;;22.80;15.43;;;;;;;7.62;81.55;96473.61;1790176;77;21191;-82
2021/10/12 04:45:43;;;;;;;22.32;14.87;;;;;;;7.55;81.53;96479.11;1794190;77;21142;-82
2021/10/12 04:48:08;;;;;;;20.50;16.75;;;;;;;7.48;81.58;96475.53;1767979;78;21586;-82
2021/10/12 04:50:34;;;;;;;20.10;15.10;;;;;;;7.43;81.64;96479.09;1825514;77;21130;-82
2021/10/12 04:53:01;;;;;;;20.60;16.82;;;;;;;7.36;81.60;96477.64;1802164;77;22491;-82
2021/10/12 04:55:29;;;;;;;22.15;15.98;;;;;;;7.33;81.72;96478.45;1837829;76;21107;-82
2021/10/12 04:57:54;;;;;;;17.70;14.40;;;;;;;7.31;81.77;96478.58;1821870;76;21139;-82
2021/10/12 05:00:21;;;;;;;26.93;21.15;;;;;;;7.29;81.80;96477.94;1821835;77;21188;-82
2021/10/12 05:02:47;;;;;;;23.30;18.35;;;;;;;7.28;82.02;96474.22;1824355;76;21095;-82
2021/10/12 05:05:13;;;;;;;18.45;13.18;;;;;;;7.23;82.36;96466.95;1807203;77;21451;-82
2021/10/12 05:07:39;;;;;;;19.60;14.30;;;;;;;7.19;82.60;96466.95;1811757;77;21174;-82
2021/10/12 05:10:06;;;;;;;15.63;12.60;;;;;;;7.20;82.72;96470.66;1838884;75;21603;-82
2021/10/12 05:12:32;;;;;;;14.15;10.30;;;;;;;7.24;82.98;96462.10;1813666;77;21415;-82
2021/10/12 05:14:58;;;;;;;16.00;10.58;;;;;;;7.25;82.94;96451.28;1830811;75;21095;-82
2021/10/12 05:17:33;;;;;;;16.87;13.32;;;;;;;7.27;83.13;96451.92;1810052;77;21102;-82
2021/10/12 05:19:54;;;;;;;25.88;21.20;;;;;;;7.30;83.07;96446.44;1811265;77;21143;-82
2021/10/12 05:22:20;;;;;;;17.98;13.68;;;;;;;7.30;83.27;96460.16;1822382;77;21258;-82
2021/10/12 05:24:46;;;;;;;12.98;8.88;;;;;;;7.32;83.45;96455.67;1845259;77;21065;-82
2021/10/12 05:27:12;;;;;;;11.12;8.98;;;;;;;7.35;83.52;96451.47;1857508;75;22139;-82
2021/10/12 05:29:37;;;;;;;11.65;8.05;;;;;;;7.40;83.52;96453.08;1839220;76;21030;-82
2021/10/12 05:32:04;;;;;;;13.95;10.88;;;;;;;7.45;83.72;96453.40;1854469;75;21006;-82
2021/10/12 05:34:30;;;;;;;41.65;36.45;;;;;;;7.49;83.56;96456.02;1842494;77;21074;-82
2021/10/12 05:36:57;;;;;;;19.15;16.75;;;;;;;7.49;83.30;96457.30;1847464;77;21066;-82
2021/10/12 05:39:22;;;;;;;14.55;11.60;;;;;;;7.50;83.54;96461.50;1841437;77;21370;-82
2021/10/12 05:41:48;;;;;;;22.67;16.67;;;;;;;7.52;83.61;96463.92;1793916;78;21064;-82
2021/10/12 05:44:14;;;;;;;14.43;12.43;;;;;;;7.55;83.60;96466.67;1793793;77;21039;-82
2021/10/12 05:46:40;;;;;;;14.13;11.48;;;;;;;7.59;83.43;96474.42;1772252;80;21047;-82
2021/10/12 05:49:06;;;;;;;12.43;9.78;;;;;;;7.63;83.53;96473.13;1804214;77;21074;-82
2021/10/12 05:51:32;;;;;;;17.48;11.35;;;;;;;7.68;83.36;96471.70;1802106;77;21095;-82
2021/10/12 05:53:59;;;;;;;14.60;10.53;;;;;;;7.67;83.16;96462.80;1829254;77;21118;-82
2021/10/12 05:56:28;;;;;;;15.08;9.18;;;;;;;7.64;83.22;96456.64;1849942;75;22159;-82
2021/10/12 05:58:53;;;;;;;11.83;8.68;;;;;;;7.60;82.94;96460.04;1833233;77;21186;-82
2021/10/12 06:01:22;;;;;;;15.80;9.78;;;;;;;7.58;82.85;96465.05;1830072;77;22032;-82
2021/10/12 06:03:49;;;;;;;17.20;10.88;;;;;;;7.63;83.16;96465.37;1808128;77;21051;-82
2021/10/12 06:06:14;;;;;;;14.45;10.03;;;;;;;7.67;83.27;96461.52;1769613;78;21167;-83
2021/10/12 06:08:41;;;;;;;14.93;9.53;;;;;;;7.71;82.97;96458.92;1796134;77;21118;-82
2021/10/12 06:11:08;;;;;;;10.93;8.25;;;;;;;7.69;83.01;96455.69;1809060;77;21085;-82
2021/10/12 06:13:35;;;;;;;12.55;8.28;;;;;;;7.69;83.08;96461.67;1756182;80;21088;-82
2021/10/12 06:16:01;;;;;;;13.98;11.95;;;;;;;7.64;82.96;96461.33;1816358;77;21130;-82
2021/10/12 06:18:27;;;;;;;14.95;12.73;;;;;;;7.63;82.96;96461.00;1830477;76;21035;-82
2021/10/12 06:20:53;;;;;;;15.80;11.45;;;;;;;7.65;82.91;96454.41;1816470;77;21086;-82
2021/10/12 06:23:20;;;;;;;15.75;14.25;;;;;;;7.67;82.76;96458.45;1833618;76;21071;-82
2021/10/12 06:25:46;;;;;;;13.40;11.30;;;;;;;7.66;82.71;96455.53;1845241;77;21104;-82
2021/10/12 06:28:13;;;;;;;10.63;7.25;;;;;;;7.64;82.88;96461.81;1836886;77;21127;-82
2021/10/12 06:30:40;;;;;;;11.18;8.40;;;;;;;7.61;82.77;96458.27;1796221;77;21072;-83
2021/10/12 06:33:06;;;;;;;10.58;7.87;;;;;;;7.60;82.88;96457.94;1803320;79;21200;-82
2021/10/12 06:35:32;;;;;;;11.57;6.35;;;;;;;7.60;82.95;96461.33;1803424;79;21589;-82
2021/10/12 06:37:58;;;;;;;8.73;5.83;;;;;;;7.61;83.21;96462.95;1792865;77;21119;-82
2021/10/12 06:40:26;;;;;;;9.28;5.92;;;;;;;7.63;83.09;96466.17;1835684;76;21102;-82
2021/10/12 06:42:52;;;;;;;9.98;7.25;;;;;;;7.70;83.26;96463.77;1828954;76;21079;-82
2021/10/12 06:45:18;;;;;;;9.28;6.60;;;;;;;7.72;83.16;96465.22;1818202;77;21111;-82
2021/10/12 06:47:44;;;;;;;8.08;5.87;;;;;;;7.71;83.05;96467.98;1828396;76;21077;-82
2021/10/12 06:50:10;;;;;;;9.10;7.50;;;;;;;7.68;82.92;96472.98;1816897;77;21048;-82
2021/10/12 06:52:36;;;;;;;11.93;6.78;;;;;;;7.65;82.65;96473.80;1814110;77;21051;-82
2021/10/12 06:55:04;;;;;;;36.13;16.15;;;;;;;7.68;83.17;96481.23;1840769;77;21205;-82
2021/10/12 06:57:30;;;;;;;28.12;13.93;;;;;;;7.60;82.58;96486.38;1840810;76;21059;-82
2021/10/12 06:59:56;;;;;;;19.35;11.65;;;;;;;7.62;83.15;96493.01;1811019;77;21486;-82
2021/10/12 07:02:22;;;;;;;20.65;11.22;;;;;;;7.65;82.90;96495.78;1803559;78;21133;-82
2021/10/12 07:04:47;;;;;;;15.98;10.88;;;;;;;7.62;83.14;96488.33;1801181;76;21074;-82
2021/10/12 07:07:14;;;;;;;14.23;10.03;;;;;;;7.63;83.57;96488.16;1789860;77;21098;-82
2021/10/12 07:09:41;;;;;;;17.98;10.90;;;;;;;7.71;83.45;96483.00;1812076;76;21437;-82
2021/10/12 07:12:07;;;;;;;20.02;11.73;;;;;;;7.79;83.33;96486.06;1817892;77;21119;-82
2021/10/12 07:14:33;;;;;;;18.77;12.95;;;;;;;7.86;83.25;96486.25;1819421;78;21104;-82
2021/10/12 07:16:58;;;;;;;25.90;15.88;;;;;;;7.87;83.12;96490.45;1817773;76;21085;-82
2021/10/12 07:19:26;;;;;;;23.80;17.37;;;;;;;7.90;83.27;96483.65;1820547;77;21054;-82
2021/10/12 07:21:55;;;;;;;19.98;16.77;;;;;;;7.89;83.02;96486.72;1821578;78;21405;-82
2021/10/12 07:24:21;;;;;;;17.98;14.03;;;;;;;7.94;83.32;96486.23;1801551;77;21126;-82
2021/10/12 07:26:49;;;;;;;14.60;10.65;;;;;;;7.97;83.41;96494.95;1801690;79;21063;-82
2021/10/12 07:29:15;;;;;;;11.83;9.33;;;;;;;8.00;83.65;96495.95;1808689;76;21137;-82
2021/10/12 07:31:41;;;;;;;14.70;11.08;;;;;;;7.96;83.16;96498.03;1809418;78;21138;-82
2021/10/12 07:34:07;;;;;;;14.05;10.32;;;;;;;7.92;83.34;96494.16;1812656;77;21498;-82
2021/10/12 07:36:32;;;;;;;15.13;11.18;;;;;;;7.90;83.24;96491.41;1818430;77;21151;-82
2021/10/12 07:38:58;;;;;;;14.95;11.75;;;;;;;7.83;83.16;96490.78;1825664;77;21102;-82
2021/10/12 07:41:24;;;;;;;16.93;11.18;;;;;;;7.80;83.53;96489.78;1816257;77;20996;-82
2021/10/12 07:43:50;;;;;;;14.87;10.15;;;;;;;7.82;83.31;96496.12;1819969;76;21090;-82
2021/10/12 07:46:16;;;;;;;12.45;10.32;;;;;;;7.79;83.16;96489.95;1791911;78;21046;-82
2021/10/12 07:48:41;;;;;;;15.40;10.60;;;;;;;7.74;83.10;96492.22;1823850;77;21427;-82
2021/10/12 07:51:07;;;;;;;16.90;10.53;;;;;;;7.66;83.07;96485.77;1839794;77;21473;-82
2021/10/12 07:53:36;;;;;;;19.05;11.95;;;;;;;7.68;83.55;96491.09;1818390;77;21457;-82
2021/10/12 07:56:03;;;;;;;56.63;35.00;;;;;;;7.68;83.73;96500.14;1831261;77;21062;-82
2021/10/12 07:58:28;;;;;;;83.58;46.77;;;;;;;7.73;83.79;96493.19;1846307;76;21113;-82
2021/10/12 08:00:54;;;;;;;60.80;35.73;;;;;;;7.76;83.85;96496.25;1850409;76;21042;-82
2021/10/12 08:03:20;;;;;;;29.92;18.35;;;;;;;7.79;83.89;96499.00;1767149;77;21043;-82
2021/10/12 08:05:46;;;;;;;28.25;17.80;;;;;;;7.79;83.98;96495.92;1840883;76;21110;-82
2021/10/12 08:08:11;;;;;;;17.67;12.65;;;;;;;7.77;83.81;96492.70;1830125;76;21067;-82
2021/10/12 08:10:38;;;;;;;17.02;12.25;;;;;;;7.71;83.84;96486.08;1801158;77;21102;-82
2021/10/12 08:13:08;;;;;;;17.92;11.83;;;;;;;7.75;83.98;96493.34;1835569;77;21091;-83
2021/10/12 08:15:33;;;;;;;21.73;13.53;;;;;;;7.82;84.26;96490.94;1842255;76;21129;-82
2021/10/12 08:17:59;;;;;;;18.25;12.25;;;;;;;7.90;84.22;96492.70;1823280;77;21130;-82
2021/10/12 08:20:26;;;;;;;17.62;11.93;;;;;;;7.96;84.05;96486.87;1845874;76;21024;-82
2021/10/12 08:22:52;;;;;;;19.87;12.82;;;;;;;7.96;83.97;96483.80;1846890;76;21376;-83
2021/10/12 08:25:17;;;;;;;15.48;12.35;;;;;;;8.00;84.05;96478.64;1843326;77;21489;-82
2021/10/12 08:27:43;;;;;;;15.60;13.13;;;;;;;8.03;84.18;96480.09;1832618;77;21042;-82
2021/10/12 08:30:10;;;;;;;20.52;13.38;;;;;;;8.10;84.49;96477.97;1815690;77;21090;-82
2021/10/12 08:32:37;;;;;;;17.25;12.28;;;;;;;8.19;84.47;96474.09;1844825;77;21023;-82
2021/10/12 08:35:04;;;;;;;16.05;11.50;;;;;;;8.27;84.36;96475.35;1854144;75;21094;-82
2021/10/12 08:37:30;;;;;;;15.70;10.68;;;;;;;8.30;83.43;96471.16;1842785;76;21090;-82
2021/10/12 08:39:56;;;;;;;16.90;11.38;;;;;;;8.35;83.89;96470.20;1829720;76;21420;-82
2021/10/12 08:42:27;;;;;;;16.62;10.75;;;;;;;8.32;83.21;96466.14;1822059;76;21040;-82
2021/10/12 08:44:57;;;;;;;14.95;11.68;;;;;;;8.28;82.74;96467.91;1852066;76;21028;-82
2021/10/12 08:47:23;;;;;;;12.00;10.08;;;;;;;8.26;83.24;96466.78;1847658;76;21058;-83
2021/10/12 08:49:50;;;;;;;13.78;10.15;;;;;;;8.27;82.83;96467.59;1841169;76;21039;-82
2021/10/12 08:52:16;;;;;;;15.80;10.03;;;;;;;8.26;82.68;96470.66;1832960;77;21460;-82
2021/10/12 08:54:42;;;;;;;14.53;10.08;;;;;;;8.19;82.47;96465.03;1839790;76;21118;-82
2021/10/12 08:57:07;;;;;;;16.27;11.28;;;;;;;8.17;82.64;96461.80;1828160;76;21102;-82
2021/10/12 08:59:34;;;;;;;16.00;10.82;;;;;;;8.13;82.45;96460.84;1806514;77;21138;-82
2021/10/12 09:02:02;;;;;;;16.97;11.20;;;;;;;8.17;82.51;96463.09;1795394;78;21130;-82
2021/10/12 09:04:40;;;;;;;13.72;10.65;;;;;;;8.20;82.59;96454.51;1845657;77;21050;-83
2021/10/12 09:07:20;;;;;;;15.90;10.63;;;;;;;8.25;83.07;96463.87;1835267;76;21468;-82
2021/10/12 09:09:46;;;;;;;13.43;11.05;;;;;;;8.27;83.00;96461.12;1843641;76;21129;-82
2021/10/12 09:12:12;;;;;;;15.93;10.13;;;;;;;8.27;82.74;96462.41;1836093;77;21468;-82
2021/10/12 09:14:57;;;;;;;16.87;11.18;;;;;;;8.22;82.58;96458.22;1820013;77;21182;-82
2021/10/12 09:17:34;;;;;;;16.10;11.25;;;;;;;8.25;82.82;96458.70;1825904;77;21401;-82
2021/10/12 09:20:02;;;;;;;17.07;13.20;;;;;;;8.25;82.51;96458.70;1839687;77;21058;-83
2021/10/12 09:22:28;;;;;;;16.27;11.55;;;;;;;8.27;82.69;96455.45;1837764;76;21130;-82
2021/10/12 09:25:00;;;;;;;18.75;11.93;;;;;;;8.31;82.81;96458.05;1815154;77;21105;-82
2021/10/12 09:27:27;;;;;;;17.05;12.43;;;;;;;8.30;83.12;96456.44;1821583;77;21419;-82
2021/10/12 09:29:57;;;;;;;16.48;11.68;;;;;;;8.23;82.25;96455.47;1801314;77;21018;-82
2021/10/12 09:32:24;;;;;;;15.50;12.33;;;;;;;8.21;82.66;96453.53;1799553;76;21111;-82
2021/10/12 09:34:53;;;;;;;19.48;13.40;;;;;;;8.21;82.32;96449.66;1769539;78;21158;-82
2021/10/12 09:37:19;;;;;;;17.23;13.45;;;;;;;8.27;82.58;96447.69;1751014;79;21674;-82
2021/10/12 09:39:46;;;;;;;19.02;13.20;;;;;;;8.35;82.56;96450.30;1789640;77;21015;-82
2021/10/12 09:44:58;;;;;;;17.75;14.03;;;;;;;8.42;82.45;96442.17;1845783;77;21034;-82
2021/10/12 09:47:24;;;;;;;16.05;12.45;;;;;;;8.41;82.51;96444.45;1856607;76;21420;-82
2021/10/12 09:49:50;;;;;;;21.50;14.00;;;;;;;8.49;82.64;96435.05;1824963;77;21051;-82
2021/10/12 09:52:17;;;;;;;20.55;15.30;;;;;;;8.60;82.53;96435.97;1803485;77;21074;-82
2021/10/12 09:54:57;;;;;;;20.70;14.70;;;;;;;8.70;82.67;96428.81;1832571;75;21493;-82
2021/10/12 09:57:28;;;;;;;20.02;15.53;;;;;;;8.81;82.70;96428.45;1843990;76;21425;-82
2021/10/12 09:59:53;;;;;;;19.45;14.25;;;;;;;8.84;82.73;96420.82;1819255;77;21389;-82
2021/10/12 10:04:49;;;;;;;27.00;18.82;;;;;;;9.01;82.33;96411.48;1804725;76;21018;-82
2021/10/12 10:07:24;;;;;;;22.62;14.33;;;;;;;9.16;82.90;96410.76;1847707;76;21067;-82
2021/10/12 10:09:51;;;;;;;23.27;14.20;;;;;;;9.31;82.05;96405.15;1830849;76;21432;-82
2021/10/12 10:12:17;;;;;;;18.50;12.65;;;;;;;9.42;82.00;96407.80;1795099;77;21067;-82
2021/10/12 10:14:43;;;;;;;14.43;11.03;;;;;;;9.57;81.80;96408.66;1803932;77;21195;-82
2021/10/12 10:17:09;;;;;;;16.60;13.18;;;;;;;9.72;80.77;96409.52;1777256;77;21062;-82
2021/10/12 10:19:37;;;;;;;17.98;13.58;;;;;;;9.77;81.27;96405.12;1777885;78;21086;-82
2021/10/12 10:22:03;;;;;;;16.70;12.33;;;;;;;9.82;80.36;96393.22;1768704;78;21152;-82
2021/10/12 10:24:43;;;;;;;15.50;10.63;;;;;;;9.83;81.11;96394.02;1804491;77;21120;-83
2021/10/12 10:27:30;;;;;;;14.53;8.80;;;;;;;9.79;79.39;96390.98;1775901;78;21059;-83
2021/10/12 10:30:21;;;;;;;12.20;7.17;;;;;;;9.78;78.52;96389.86;1720485;81;21084;-80
2021/10/12 10:32:53;;;;;;;9.18;5.55;;;;;;;9.63;77.98;96395.82;1769650;78;21155;-80
2021/10/12 10:37:58;;;;;;;10.03;6.42;;;;;;;9.41;77.20;96389.34;1749947;81;21496;-80
2021/10/12 10:40:27;;;;;;;11.70;7.70;;;;;;;9.41;77.47;96387.55;1713436;80;21136;-80
2021/10/12 10:42:56;;;;;;;5.97;5.12;;;;;;;9.49;77.12;96388.80;1768904;80;21223;-80
2021/10/12 10:45:34;;;;;;;7.47;4.83;;;;;;;9.66;75.48;96379.09;1755629;80;21080;-80
2021/10/12 10:48:04;;;;;;;7.87;5.67;;;;;;;9.76;74.29;96376.23;1734661;81;21013;-80
2021/10/12 10:50:33;;;;;;;5.90;4.70;;;;;;;9.83;75.63;96374.06;1723129;82;21103;-80
2021/10/12 10:53:02;;;;;;;6.83;4.78;;;;;;;9.81;74.75;96363.06;1760704;80;21071;-80
2021/10/12 10:55:34;;;;;;;9.70;6.20;;;;;;;9.75;73.69;96362.45;1754852;80;21114;-79
2021/10/12 10:58:18;;;;;;;8.40;5.33;;;;;;;9.68;72.79;96364.16;1762136;80;21063;-80
2021/10/12 11:00:52;;;;;;;7.87;5.70;;;;;;;9.57;74.78;96354.19;1777297;79;21116;-80
2021/10/12 11:03:35;;;;;;;6.72;3.98;;;;;;;9.50;74.72;96361.88;1776543;79;21105;-79
2021/10/12 11:06:18;;;;;;;5.40;4.10;;;;;;;9.48;73.86;96356.06;1769893;79;21079;-81
2021/10/12 11:09:00;;;;;;;7.05;4.45;;;;;;;9.69;73.52;96347.60;1742539;79;21183;-80
2021/10/12 11:11:31;;;;;;;6.67;4.62;;;;;;;9.93;74.08;96343.48;1765233;79;21830;-80
2021/10/12 11:13:59;;;;;;;9.55;5.00;;;;;;;10.11;73.57;96335.34;1772147;80;21098;-80
2021/10/12 11:16:28;;;;;;;6.20;4.42;;;;;;;10.19;72.18;96325.34;1773243;80;21478;-80
2021/10/12 11:19:00;;;;;;;6.47;3.92;;;;;;;10.27;72.35;96318.79;1750412;80;21481;-82
2021/10/12 11:21:26;;;;;;;;;;;;;;;10.39;71.81;96322.52;1776072;80;21133;-83
2021/10/12 11:23:54;;;;;;;5.50;3.30;;;;;;;10.51;70.76;96322.86;1764846;80;20317;-82
2021/10/12 11:26:22;;;;;;;5.62;3.92;;;;;;;10.58;70.92;96322.95;1767589;80;21160;-83
2021/10/12 11:28:52;;;;;;;7.00;3.70;;;;;;;10.68;70.57;96319.05;1765908;78;21109;-82
2021/10/12 11:31:24;;;;;;;5.97;3.62;;;;;;;10.83;69.97;96316.41;1802722;77;21076;-83
2021/10/12 11:33:53;;;;;;;6.37;4.17;;;;;;;10.84;70.69;96305.02;1780433;77;21123;-83
2021/10/12 11:36:25;;;;;;;8.25;5.22;;;;;;;10.92;70.67;96308.82;1819351;77;21115;-83